createdAt,value
2022-12-01T00:02:18.606Z,68.13
2022-12-01T00:04:48.409Z,75.00
2022-12-01T00:07:15.808Z,64.93
2022-12-01T00:09:58.537Z,72.10
2022-12-01T00:12:25.941Z,70.03
2022-12-01T00:15:01.021Z,69.07
2022-12-01T00:17:29.323Z,70.13
2022-12-01T00:19:58.098Z,69.43
2022-12-01T00:22:26.590Z,66.50
2022-12-01T00:24:56.368Z,57.47
2022-12-01T00:27:23.757Z,66.00
2022-12-01T00:29:51.264Z,69.80
2022-12-01T00:32:18.703Z,62.73
2022-12-01T00:34:46.063Z,68.83
2022-12-01T00:37:13.507Z,65.87
2022-12-01T00:39:40.903Z,66.43
2022-12-01T00:42:13.303Z,66.93
2022-12-01T00:44:41.012Z,57.97
2022-12-01T00:47:08.436Z,61.20
2022-12-01T00:49:35.852Z,59.73
2022-12-01T00:52:03.257Z,56.30
2022-12-01T00:54:32.124Z,64.97
2022-12-01T00:56:59.772Z,57.87
2022-12-01T00:59:28.519Z,60.73
2022-12-01T01:01:56.137Z,63.10
2022-12-01T01:04:23.690Z,62.60
2022-12-01T01:06:51.069Z,54.57
2022-12-01T01:09:18.616Z,53.50
2022-12-01T01:11:46.065Z,52.70
2022-12-01T01:14:13.480Z,62.67
2022-12-01T01:16:42.319Z,66.27
2022-12-01T01:19:09.830Z,54.00
2022-12-01T01:21:37.251Z,51.73
2022-12-01T01:24:04.890Z,57.57
2022-12-01T01:26:32.913Z,52.70
2022-12-01T01:29:01.837Z,62.23
2022-12-01T01:31:30.709Z,54.03
2022-12-01T01:33:59.544Z,56.20
2022-12-01T01:36:27.259Z,56.63
2022-12-01T01:38:55.240Z,53.97
2022-12-01T01:41:23.248Z,51.20
2022-12-01T01:43:51.389Z,52.27
2022-12-01T01:46:21.155Z,50.17
2022-12-01T01:48:49.837Z,55.40
2022-12-01T01:51:20.578Z,52.93
2022-12-01T01:53:49.072Z,51.77
2022-12-01T01:56:16.472Z,51.97
2022-12-01T01:58:44.987Z,50.60
2022-12-01T02:01:12.473Z,48.20
2022-12-01T02:03:40.916Z,53.23
2022-12-01T02:06:08.746Z,53.23
2022-12-01T02:08:38.316Z,57.30
2022-12-01T02:11:13.225Z,52.07
2022-12-01T02:13:43.335Z,48.60
2022-12-01T02:16:13.509Z,53.07
2022-12-01T02:18:46.250Z,47.87
2022-12-01T02:21:22.762Z,48.60
2022-12-01T02:24:03.153Z,49.73
2022-12-01T02:26:48.323Z,55.03
2022-12-01T02:29:34.514Z,50.83
2022-12-01T02:32:09.511Z,52.20
2022-12-01T02:34:41.408Z,44.60
2022-12-01T02:37:11.762Z,51.53
2022-12-01T02:39:40.551Z,51.80
2022-12-01T02:42:09.927Z,45.77
2022-12-01T02:44:39.832Z,43.17
2022-12-01T02:47:11.432Z,43.17
2022-12-01T02:49:41.519Z,43.17
2022-12-01T02:52:11.108Z,39.20
2022-12-01T02:54:38.527Z,39.03
2022-12-01T02:57:05.943Z,38.20
2022-12-01T02:59:33.374Z,38.13
2022-12-01T03:02:05.406Z,38.43
2022-12-01T03:04:40.065Z,38.33
2022-12-01T03:07:12.069Z,35.77
2022-12-01T03:09:42.653Z,34.10
2022-12-01T03:12:15.191Z,37.07
2022-12-01T03:14:47.231Z,36.80
2022-12-01T03:17:16.914Z,34.27
2022-12-01T03:19:49.688Z,31.77
2022-12-01T03:22:22.846Z,30.50
2022-12-01T03:24:50.418Z,29.50
2022-12-01T03:27:19.616Z,28.73
2022-12-01T03:29:49.581Z,27.23
2022-12-01T03:32:19.361Z,30.73
2022-12-01T03:34:50.854Z,27.10
2022-12-01T03:37:21.104Z,29.57
2022-12-01T03:39:49.643Z,27.43
2022-12-01T03:42:19.122Z,26.00
2022-12-01T03:44:49.254Z,26.47
2022-12-01T03:47:18.055Z,24.70
2022-12-01T03:49:46.618Z,27.57
2022-12-01T03:52:20.008Z,27.90
2022-12-01T03:54:53.106Z,27.80
2022-12-01T03:57:22.785Z,26.87
2022-12-01T03:59:50.614Z,25.90
2022-12-01T04:02:18.491Z,27.73
2022-12-01T04:04:45.927Z,24.40
2022-12-01T04:07:14.772Z,25.43
2022-12-01T04:09:43.515Z,26.57
2022-12-01T04:12:30.777Z,26.63
2022-12-01T04:14:58.330Z,25.67
2022-12-01T04:17:26.084Z,26.13
2022-12-01T04:19:53.522Z,28.43
2022-12-01T04:22:20.988Z,28.50
2022-12-01T04:24:50.846Z,28.87
2022-12-01T04:27:18.240Z,27.33
2022-12-01T04:29:45.842Z,29.10
2022-12-01T04:32:13.711Z,31.67
2022-12-01T04:34:41.124Z,28.70
2022-12-01T04:37:09.892Z,26.53
2022-12-01T04:39:37.391Z,28.93
2022-12-01T04:42:06.344Z,25.63
2022-12-01T04:44:35.273Z,28.00
2022-12-01T04:47:03.230Z,27.10
2022-12-01T04:49:30.763Z,31.23
2022-12-01T04:51:58.322Z,27.60
2022-12-01T04:54:25.743Z,30.53
2022-12-01T04:56:53.153Z,31.13
2022-12-01T04:59:22.086Z,29.70
2022-12-01T05:01:49.527Z,29.37
2022-12-01T05:04:16.955Z,30.03
2022-12-01T05:06:44.478Z,29.27
2022-12-01T05:09:17.094Z,30.83
2022-12-01T05:11:45.281Z,30.83
2022-12-01T05:14:12.702Z,29.87
2022-12-01T05:16:41.581Z,28.97
2022-12-01T05:19:26.808Z,35.47
2022-12-01T05:21:54.235Z,29.83
2022-12-01T05:24:22.008Z,29.77
2022-12-01T05:26:49.783Z,29.90
2022-12-01T05:29:17.256Z,27.93
2022-12-01T05:31:47.335Z,32.20
2022-12-01T05:34:14.972Z,34.00
2022-12-01T05:36:42.350Z,35.87
2022-12-01T05:39:09.821Z,30.20
2022-12-01T05:41:37.225Z,33.47
2022-12-01T05:44:04.719Z,32.70
2022-12-01T05:46:32.607Z,33.77
2022-12-01T05:49:01.362Z,30.57
2022-12-01T05:51:28.760Z,29.53
2022-12-01T05:53:56.168Z,32.50
2022-12-01T05:56:23.572Z,31.20
2022-12-01T05:58:51.021Z,32.93
2022-12-01T06:01:18.518Z,33.03
2022-12-01T06:03:46.019Z,34.87
2022-12-01T06:06:14.871Z,29.50
2022-12-01T06:08:42.282Z,34.03
2022-12-01T06:11:09.812Z,30.53
2022-12-01T06:13:37.251Z,32.50
2022-12-01T06:16:06.338Z,34.43
2022-12-01T06:18:34.532Z,32.57
2022-12-01T06:21:02.019Z,35.07
2022-12-01T06:23:30.978Z,34.30
2022-12-01T06:25:58.648Z,31.83
2022-12-01T06:28:26.232Z,33.80
2022-12-01T06:30:59.333Z,35.97
2022-12-01T06:33:30.134Z,37.40
2022-12-01T06:36:00.782Z,33.50
2022-12-01T06:38:30.855Z,35.23
2022-12-01T06:40:59.637Z,39.37
2022-12-01T06:43:27.070Z,36.73
2022-12-01T06:46:00.869Z,32.97
2022-12-01T06:48:30.381Z,33.03
2022-12-01T06:50:58.294Z,33.13
2022-12-01T06:53:27.268Z,35.20
2022-12-01T06:55:54.728Z,38.10
2022-12-01T06:58:23.541Z,32.47
2022-12-01T07:00:52.369Z,35.80
2022-12-01T07:03:19.915Z,37.00
2022-12-01T07:05:55.339Z,40.23
2022-12-01T07:08:22.747Z,38.93
2022-12-01T07:10:57.046Z,38.37
2022-12-01T07:13:31.545Z,36.33
2022-12-01T07:16:00.652Z,35.57
2022-12-01T07:18:28.144Z,39.03
2022-12-01T07:20:59.334Z,34.40
2022-12-01T07:23:26.719Z,28.73
2022-12-01T07:25:58.824Z,32.63
2022-12-01T07:28:27.616Z,29.97
2022-12-01T07:30:55.201Z,30.17
2022-12-01T07:33:22.604Z,29.77
2022-12-01T07:35:50.031Z,36.43
2022-12-01T07:38:21.933Z,27.00
2022-12-01T07:40:49.745Z,30.77
2022-12-01T07:43:17.193Z,35.43
2022-12-01T07:45:46.051Z,32.47
2022-12-01T07:48:13.543Z,36.00
2022-12-01T07:50:41.014Z,37.87
2022-12-01T07:53:08.433Z,34.80
2022-12-01T07:55:35.854Z,36.53
2022-12-01T07:58:03.291Z,40.10
2022-12-01T08:00:30.691Z,46.07
2022-12-01T08:02:59.529Z,40.90
2022-12-01T08:05:26.995Z,42.97
2022-12-01T08:07:54.695Z,39.20
2022-12-01T08:10:22.122Z,45.40
2022-12-01T08:12:49.561Z,48.27
2022-12-01T08:15:16.985Z,45.30
2022-12-01T08:17:44.381Z,50.83
2022-12-01T08:20:13.668Z,44.27
2022-12-01T08:22:41.070Z,44.97
2022-12-01T08:25:09.031Z,42.77
2022-12-01T08:27:36.430Z,43.03
2022-12-01T08:30:03.875Z,42.90
2022-12-01T08:32:31.257Z,43.10
2022-12-01T08:34:58.686Z,41.93
2022-12-01T08:37:27.470Z,40.20
2022-12-01T08:39:54.870Z,41.03
2022-12-01T08:42:22.293Z,35.33
2022-12-01T08:44:49.869Z,35.20
2022-12-01T08:47:19.077Z,37.07
2022-12-01T08:49:46.859Z,31.80
2022-12-01T08:52:14.512Z,32.23
2022-12-01T08:54:43.275Z,33.57
2022-12-01T08:57:10.665Z,32.87
2022-12-01T08:59:38.090Z,29.07
2022-12-01T09:02:07.302Z,27.93
2022-12-01T09:04:34.788Z,29.37
2022-12-01T09:07:02.204Z,26.97
2022-12-01T09:09:30.144Z,28.17
2022-12-01T09:11:59.020Z,25.13
2022-12-01T09:14:26.437Z,26.17
2022-12-01T09:16:53.859Z,26.23
2022-12-01T09:19:24.902Z,28.17
2022-12-01T09:21:52.676Z,28.00
2022-12-01T09:24:20.093Z,29.40
2022-12-01T09:26:47.480Z,26.67
2022-12-01T09:29:16.622Z,28.30
2022-12-01T09:31:44.637Z,33.43
2022-12-01T09:34:13.570Z,28.63
2022-12-01T09:36:41.187Z,28.73
2022-12-01T09:39:09.163Z,26.80
2022-12-01T09:41:38.732Z,29.20
2022-12-01T09:44:14.169Z,32.57
2022-12-01T09:46:44.263Z,31.10
2022-12-01T09:49:15.479Z,31.90
2022-12-01T09:51:42.924Z,31.47
2022-12-01T09:54:11.965Z,31.90
2022-12-01T09:56:42.114Z,31.47
2022-12-01T09:59:17.629Z,31.80
2022-12-01T10:01:48.967Z,30.80
2022-12-01T10:04:18.603Z,29.50
2022-12-01T10:06:49.638Z,30.80
2022-12-01T10:09:21.442Z,30.10
2022-12-01T10:11:49.427Z,29.93
2022-12-01T10:14:20.497Z,34.13
2022-12-01T10:16:53.182Z,29.20
2022-12-01T10:19:24.227Z,30.67
2022-12-01T10:22:00.222Z,33.70
2022-12-01T10:24:32.722Z,29.93
2022-12-01T10:27:06.773Z,32.07
2022-12-01T10:29:36.462Z,30.10
2022-12-01T10:32:07.916Z,32.40
2022-12-01T10:34:36.433Z,25.23
2022-12-01T10:37:04.159Z,27.63
2022-12-01T10:39:32.354Z,30.87
2022-12-01T10:42:04.693Z,31.23
2022-12-01T10:44:32.368Z,32.90
2022-12-01T10:46:59.891Z,27.90
2022-12-01T10:49:37.393Z,27.00
2022-12-01T10:52:04.824Z,30.53
2022-12-01T10:54:36.765Z,29.23
2022-12-01T10:57:04.751Z,29.90
2022-12-01T10:59:33.851Z,28.17
2022-12-01T11:02:02.411Z,26.63
2022-12-01T11:04:44.910Z,28.17
2022-12-01T11:07:20.080Z,25.27
2022-12-01T11:09:49.927Z,27.73
2022-12-01T11:12:20.454Z,29.43
2022-12-01T11:14:49.431Z,30.70
2022-12-01T11:17:17.863Z,29.40
2022-12-01T11:19:46.855Z,30.10
2022-12-01T11:22:20.481Z,29.77
2022-12-01T11:24:57.017Z,29.57
2022-12-01T11:27:25.823Z,33.40
2022-12-01T11:29:54.353Z,30.03
2022-12-01T11:32:23.186Z,28.07
2022-12-01T11:34:53.439Z,29.43
2022-12-01T11:37:22.161Z,30.10
2022-12-01T11:39:50.496Z,27.80
2022-12-01T11:42:22.472Z,32.33
2022-12-01T11:44:52.192Z,30.00
2022-12-01T11:47:23.547Z,34.57
2022-12-01T11:49:55.113Z,29.43
2022-12-01T11:52:24.377Z,31.03
2022-12-01T11:55:08.395Z,30.30
2022-12-01T11:57:37.686Z,29.97
2022-12-01T12:00:13.258Z,29.03
2022-12-01T12:02:43.675Z,33.30
2022-12-01T12:05:35.699Z,31.50
2022-12-01T12:08:07.062Z,33.20
2022-12-01T12:10:41.822Z,28.80
2022-12-01T12:13:15.996Z,29.17
2022-12-01T12:15:50.158Z,30.27
2022-12-01T12:18:32.563Z,28.80
2022-12-01T12:21:10.513Z,29.90
2022-12-01T12:23:45.769Z,31.10
2022-12-01T12:26:18.748Z,30.50
2022-12-01T12:28:53.701Z,27.37
2022-12-01T12:31:25.499Z,29.83
2022-12-01T12:34:03.034Z,30.87
2022-12-01T12:36:37.595Z,28.43
2022-12-01T12:39:16.283Z,26.90
2022-12-01T12:41:45.797Z,28.17
2022-12-01T12:44:25.673Z,28.37
2022-12-01T12:46:56.657Z,27.87
2022-12-01T12:49:28.953Z,28.47
2022-12-01T12:52:07.869Z,25.37
2022-12-01T12:54:42.784Z,24.83
2022-12-01T12:57:14.293Z,30.97
2022-12-01T12:59:43.929Z,28.90
2022-12-01T13:02:13.777Z,26.27
2022-12-01T13:04:43.325Z,28.20
2022-12-01T13:07:17.094Z,26.97
2022-12-01T13:09:46.324Z,26.20
2022-12-01T13:12:16.809Z,26.67
2022-12-01T13:14:46.252Z,28.13
2022-12-01T13:17:17.326Z,25.47
2022-12-01T13:19:45.139Z,25.10
2022-12-01T13:22:14.896Z,28.97
2022-12-01T13:24:42.796Z,27.63
2022-12-01T13:27:15.175Z,25.77
2022-12-01T13:29:46.008Z,27.37
2022-12-01T13:32:26.836Z,29.47
2022-12-01T13:34:54.346Z,28.83
2022-12-01T13:37:27.835Z,26.27
2022-12-01T13:39:56.302Z,26.23
2022-12-01T13:42:24.884Z,26.27
2022-12-01T13:44:53.509Z,26.60
2022-12-01T13:47:40.667Z,25.17
2022-12-01T13:50:26.892Z,32.33
2022-12-01T13:53:07.529Z,26.03
2022-12-01T13:55:35.087Z,30.73
2022-12-01T13:58:20.965Z,30.13
2022-12-01T14:00:48.440Z,29.53
2022-12-01T14:03:39.474Z,30.17
2022-12-01T14:06:08.482Z,29.60
2022-12-01T14:08:37.895Z,27.53
2022-12-01T14:11:06.873Z,30.13
2022-12-01T14:13:43.528Z,30.53
2022-12-01T14:16:11.065Z,31.40
2022-12-01T14:18:40.015Z,27.57
2022-12-01T14:21:09.325Z,26.77
2022-12-01T14:23:39.544Z,24.90
2022-12-01T14:26:17.519Z,26.33
2022-12-01T14:29:03.733Z,24.27
2022-12-01T14:31:49.758Z,25.50
2022-12-01T14:34:19.374Z,24.23
2022-12-01T14:36:49.091Z,23.43
2022-12-01T14:39:19.719Z,27.00
2022-12-01T14:41:48.531Z,25.63
2022-12-01T14:44:23.050Z,25.13
2022-12-01T14:46:52.595Z,23.97
2022-12-01T14:49:22.907Z,26.90
2022-12-01T14:51:52.226Z,26.67
2022-12-01T14:54:24.589Z,25.40
2022-12-01T14:56:53.378Z,24.27
2022-12-01T14:59:21.943Z,24.90
2022-12-01T15:01:51.208Z,26.10
2022-12-01T15:04:19.087Z,26.60
2022-12-01T15:06:46.923Z,28.40
2022-12-01T15:12:07.395Z,29.93
2022-12-01T15:14:36.222Z,24.43
2022-12-01T15:17:05.507Z,27.80
2022-12-01T15:19:36.751Z,33.90
2022-12-01T15:22:06.145Z,41.10
2022-12-01T15:24:34.136Z,42.10
2022-12-01T15:27:04.005Z,46.27
2022-12-01T15:29:34.557Z,41.33
2022-12-01T15:32:02.638Z,40.43
2022-12-01T15:34:31.921Z,42.83
2022-12-01T15:36:59.940Z,44.83
2022-12-01T15:39:31.531Z,50.33
2022-12-01T15:41:59.491Z,41.30
2022-12-01T15:44:28.377Z,55.90
2022-12-01T15:46:57.431Z,44.70
2022-12-01T15:49:27.576Z,45.07
2022-12-01T15:51:55.610Z,44.63
2022-12-01T15:54:24.770Z,41.17
2022-12-01T15:56:53.195Z,45.00
2022-12-01T15:59:26.039Z,42.00
2022-12-01T16:01:53.668Z,50.93
2022-12-01T16:04:23.631Z,42.80
2022-12-01T16:06:56.463Z,48.50
2022-12-01T16:09:25.181Z,45.60
2022-12-01T16:12:19.673Z,45.83
2022-12-01T16:14:51.368Z,39.87
2022-12-01T16:17:19.102Z,38.87
2022-12-01T16:19:47.868Z,36.87
2022-12-01T16:22:16.983Z,35.37
2022-12-01T16:24:47.114Z,37.90
2022-12-01T16:27:19.982Z,33.10
2022-12-01T16:29:49.999Z,39.20
2022-12-01T16:32:20.985Z,38.07
2022-12-01T16:34:50.774Z,43.43
2022-12-01T16:37:19.338Z,42.33
2022-12-01T16:39:46.838Z,39.20
2022-12-01T16:42:15.761Z,39.43
2022-12-01T16:44:44.599Z,41.00
2022-12-01T16:47:16.007Z,44.37
2022-12-01T16:49:43.401Z,43.70
2022-12-01T16:54:59.762Z,49.23
2022-12-01T16:57:27.362Z,43.70
2022-12-01T16:59:55.003Z,41.23
2022-12-01T17:02:22.546Z,39.23
2022-12-01T17:04:50.246Z,41.60
2022-12-01T17:07:19.178Z,45.77
2022-12-01T17:09:46.759Z,40.23
2022-12-01T17:12:14.146Z,43.17
2022-12-01T17:14:41.526Z,39.80
2022-12-01T17:17:10.083Z,45.60
2022-12-01T17:19:37.490Z,42.00
2022-12-01T17:22:04.899Z,45.50
2022-12-01T17:24:33.764Z,39.57
2022-12-01T17:27:01.150Z,46.07
2022-12-01T17:29:28.557Z,48.33
2022-12-01T17:31:55.959Z,44.37
2022-12-01T17:34:23.402Z,41.43
2022-12-01T17:36:51.659Z,43.33
2022-12-01T17:39:19.339Z,47.67
2022-12-01T17:41:48.089Z,48.50
2022-12-01T17:44:15.484Z,49.53
2022-12-01T17:46:42.906Z,50.07
2022-12-01T17:49:10.602Z,46.20
2022-12-01T17:51:39.377Z,43.73
2022-12-01T17:54:07.176Z,48.70
2022-12-01T17:56:34.746Z,51.30
2022-12-01T17:59:03.610Z,48.03
2022-12-01T18:01:31.114Z,53.23
2022-12-01T18:03:59.207Z,45.27
2022-12-01T18:06:26.941Z,47.83
2022-12-01T18:08:54.397Z,45.50
2022-12-01T18:11:22.792Z,47.90
2022-12-01T18:13:52.128Z,45.47
2022-12-01T18:16:22.620Z,44.97
2022-12-01T18:18:50.403Z,47.33
2022-12-01T18:21:19.253Z,44.53
2022-12-01T18:23:49.722Z,41.93
2022-12-01T18:26:17.271Z,42.30
2022-12-01T18:28:45.038Z,37.53
2022-12-01T18:31:13.415Z,36.63
2022-12-01T18:33:43.233Z,39.30
2022-12-01T18:36:12.067Z,34.57
2022-12-01T18:38:39.476Z,36.33
2022-12-01T18:41:06.899Z,35.80
2022-12-01T18:43:34.672Z,36.13
2022-12-01T18:46:03.528Z,32.27
2022-12-01T18:48:31.287Z,34.03
2022-12-01T18:51:03.940Z,33.37
2022-12-01T18:53:31.462Z,28.77
2022-12-01T18:56:02.161Z,29.57
2022-12-01T18:58:29.592Z,29.27
2022-12-01T19:00:57.046Z,31.10
2022-12-01T19:03:24.442Z,31.50
2022-12-01T19:05:51.953Z,28.13
2022-12-01T19:08:21.118Z,31.53
2022-12-01T19:10:58.136Z,27.77
2022-12-01T19:13:25.689Z,29.07
2022-12-01T19:15:53.169Z,29.40
2022-12-01T19:18:20.639Z,29.87
2022-12-01T19:20:48.094Z,28.90
2022-12-01T19:23:15.541Z,30.57
2022-12-01T19:25:44.380Z,29.60
2022-12-01T19:28:11.758Z,28.43
2022-12-01T19:30:43.989Z,29.13
2022-12-01T19:33:14.179Z,31.73
2022-12-01T19:35:41.605Z,30.43
2022-12-01T19:38:09.055Z,27.73
2022-12-01T19:40:38.347Z,30.17
2022-12-01T19:43:07.270Z,31.37
2022-12-01T19:45:37.408Z,29.47
2022-12-01T19:48:05.072Z,27.10
2022-12-01T19:50:34.348Z,27.53
2022-12-01T19:53:01.747Z,27.60
2022-12-01T19:55:29.170Z,31.13
2022-12-01T19:57:56.616Z,25.63
2022-12-01T20:00:25.871Z,27.13
2022-12-01T20:02:53.375Z,30.30
2022-12-01T20:05:21.848Z,29.03
2022-12-01T20:07:49.333Z,29.07
2022-12-01T20:10:19.992Z,30.93
2022-12-01T20:12:47.951Z,29.53
2022-12-01T20:15:15.722Z,30.97
2022-12-01T20:17:44.519Z,31.10
2022-12-01T20:20:12.490Z,30.80
2022-12-01T20:22:39.929Z,29.37
2022-12-01T20:25:09.122Z,29.37
2022-12-01T20:27:37.532Z,30.97
2022-12-01T20:30:05.406Z,29.20
2022-12-01T20:32:33.358Z,31.07
2022-12-01T20:35:02.143Z,28.67
2022-12-01T20:37:29.652Z,31.57
2022-12-01T20:39:57.730Z,28.03
2022-12-01T20:42:25.492Z,28.63
2022-12-01T20:44:53.249Z,26.23
2022-12-01T20:47:21.121Z,31.60
2022-12-01T20:49:48.579Z,29.90
2022-12-01T20:52:17.331Z,31.43
2022-12-01T20:54:44.850Z,36.73
2022-12-01T20:57:12.255Z,34.07
2022-12-01T20:59:39.671Z,31.73
2022-12-01T21:02:07.198Z,35.33
2022-12-01T21:04:34.661Z,34.67
2022-12-01T21:07:02.051Z,28.53
2022-12-01T21:09:30.956Z,29.63
2022-12-01T21:12:17.555Z,27.37
2022-12-01T21:14:48.565Z,28.47
2022-12-01T21:17:21.886Z,25.50
2022-12-01T21:19:53.483Z,24.17
2022-12-01T21:22:21.129Z,25.03
2022-12-01T21:24:51.806Z,27.40
2022-12-01T21:27:19.404Z,23.13
2022-12-01T21:29:47.500Z,23.27
2022-12-01T21:32:16.190Z,23.47
2022-12-01T21:34:45.089Z,24.30
2022-12-01T21:37:17.002Z,23.93
2022-12-01T21:39:44.405Z,23.03
2022-12-01T21:42:17.889Z,21.97
2022-12-01T21:44:45.506Z,21.60
2022-12-01T21:47:16.532Z,23.07
2022-12-01T21:49:44.611Z,22.43
2022-12-01T21:52:15.774Z,24.37
2022-12-01T21:54:43.163Z,22.00
2022-12-01T21:57:25.128Z,22.27
2022-12-01T21:59:54.889Z,22.17
2022-12-01T22:02:31.332Z,21.90
2022-12-01T22:04:59.778Z,21.83
2022-12-01T22:07:27.865Z,23.77
2022-12-01T22:09:55.290Z,21.07
2022-12-01T22:12:25.382Z,19.60
2022-12-01T22:14:54.565Z,20.50
2022-12-01T22:17:22.407Z,24.83
2022-12-01T22:19:54.743Z,18.60
2022-12-01T22:22:24.039Z,22.57
2022-12-01T22:24:52.488Z,19.83
2022-12-01T22:27:25.862Z,20.07
2022-12-01T22:29:57.085Z,18.67
2022-12-01T22:32:42.434Z,19.57
2022-12-01T22:35:30.865Z,20.00
2022-12-01T22:38:12.954Z,19.83
2022-12-01T22:40:41.291Z,19.87
2022-12-01T22:43:26.365Z,20.07
2022-12-01T22:46:01.862Z,19.07
2022-12-01T22:48:32.748Z,20.20
2022-12-01T22:51:01.913Z,21.13
2022-12-01T22:53:30.855Z,19.43
2022-12-01T22:56:00.680Z,20.73
2022-12-01T22:58:29.485Z,22.17
2022-12-01T23:00:58.100Z,21.37
2022-12-01T23:03:28.106Z,20.90
2022-12-01T23:05:57.138Z,20.73
2022-12-01T23:08:24.959Z,22.27
2022-12-01T23:10:52.371Z,21.03
2022-12-01T23:13:21.245Z,20.20
2022-12-01T23:15:50.286Z,21.57
2022-12-01T23:18:20.053Z,22.53
2022-12-01T23:20:50.123Z,20.43
2022-12-01T23:23:18.599Z,21.73
2022-12-01T23:25:46.743Z,21.70
2022-12-01T23:28:14.588Z,20.57
2022-12-01T23:30:42.741Z,21.67
2022-12-01T23:33:20.624Z,18.43
2022-12-01T23:35:52.359Z,21.23
2022-12-01T23:38:20.806Z,21.07
2022-12-01T23:40:48.408Z,20.30
2022-12-01T23:43:20.426Z,21.17
2022-12-01T23:45:49.316Z,19.77
2022-12-01T23:48:20.888Z,19.10
2022-12-01T23:50:50.282Z,18.47
2022-12-01T23:53:23.740Z,19.87
2022-12-01T23:55:51.162Z,19.27
2022-12-01T23:58:18.767Z,21.60
